Time;durP1;ratioP1;P1;durP2;ratioP2;P2;SDS_P1;SDS_P2;PMS_P1;PMS_P2;Temp;Humidity;BMP_temperature;BMP_pressure;BME280_temperature;BME280_humidity;BME280_pressure;Samples;Min_cycle;Max_cycle;Signal;HPM_P1;HPM_P2
2023/03/18 00:01:02;;;;;;;11.57;5.97;;;12.30;99.90;;;;;;10314365;28;20324;-72
2023/03/18 00:06:09;;;;;;;11.10;5.70;;;12.30;99.90;;;;;;10313998;28;20238;-73
2023/03/18 00:11:11;;;;;;;9.00;5.67;;;12.40;99.90;;;;;;10308662;28;20285;-72
2023/03/18 00:16:12;;;;;;;8.97;5.70;;;12.40;99.90;;;;;;10310702;28;20228;-72
2023/03/18 00:21:13;;;;;;;8.13;5.70;;;12.40;99.90;;;;;;10306107;28;20232;-72
2023/03/18 00:26:14;;;;;;;8.83;5.77;;;12.40;99.90;;;;;;10305384;28;20248;-71
2023/03/18 00:31:15;;;;;;;9.23;5.93;;;12.40;99.90;;;;;;10305687;28;20333;-71
2023/03/18 00:36:17;;;;;;;9.33;5.50;;;12.30;99.90;;;;;;10313789;28;20307;-72
2023/03/18 00:41:18;;;;;;;8.23;5.57;;;12.30;99.90;;;;;;10305214;28;20227;-72
2023/03/18 00:46:24;;;;;;;9.30;5.70;;;12.30;99.90;;;;;;10316625;28;20230;-72
2023/03/18 00:51:27;;;;;;;8.53;6.00;;;12.20;99.90;;;;;;10304706;28;20270;-72
2023/03/18 00:56:30;;;;;;;8.97;5.43;;;12.20;99.90;;;;;;10312026;28;20610;-72
2023/03/18 01:01:31;;;;;;;10.27;6.17;;;12.20;99.90;;;;;;10310785;28;20264;-72
2023/03/18 01:06:34;;;;;;;8.50;5.60;;;12.20;99.90;;;;;;10318697;28;20226;-72
2023/03/18 01:11:35;;;;;;;7.50;5.40;;;12.20;99.90;;;;;;10312447;28;20704;-73
2023/03/18 01:16:36;;;;;;;8.57;5.60;;;12.20;99.90;;;;;;10304246;28;20237;-73
2023/03/18 01:21:36;;;;;;;10.37;5.90;;;12.20;99.90;;;;;;10315791;28;20217;-72
2023/03/18 01:26:39;;;;;;;9.70;5.93;;;12.10;99.90;;;;;;10302384;28;20238;-72
2023/03/18 01:31:40;;;;;;;8.40;6.07;;;12.10;99.90;;;;;;10304015;28;20235;-73
2023/03/18 01:36:41;;;;;;;9.67;6.20;;;12.10;99.90;;;;;;10314025;28;20217;-72
2023/03/18 01:41:43;;;;;;;8.80;7.10;;;12.10;99.90;;;;;;10303281;28;20591;-72
2023/03/18 01:46:46;;;;;;;9.13;6.27;;;12.00;99.90;;;;;;10311686;28;20719;-72
2023/03/18 01:52:11;;;;;;;7.93;5.80;;;12.00;99.90;;;;;;10310922;28;20226;-72
2023/03/18 01:57:16;;;;;;;8.40;5.57;;;12.00;99.90;;;;;;10326560;28;20313;-71
2023/03/18 02:02:17;;;;;;;8.33;5.47;;;12.00;99.90;;;;;;10316026;28;20218;-72
2023/03/18 02:07:22;;;;;;;10.77;6.00;;;12.00;99.90;;;;;;10304595;28;20276;-72
2023/03/18 02:12:29;;;;;;;8.40;5.37;;;12.00;99.90;;;;;;10316799;28;20226;-72
2023/03/18 02:17:33;;;;;;;7.93;5.30;;;12.00;99.90;;;;;;10310759;28;20684;-71
2023/03/18 02:22:53;;;;;;;9.80;5.80;;;12.00;99.90;;;;;;10331296;28;20615;-73
2023/03/18 02:27:59;;;;;;;6.17;4.93;;;12.00;99.90;;;;;;10320177;28;20590;-71
2023/03/18 02:33:00;;;;;;;6.40;4.87;;;12.00;99.90;;;;;;10308845;28;20735;-72
2023/03/18 02:38:01;;;;;;;6.80;5.07;;;12.00;99.90;;;;;;10312879;28;20221;-72
2023/03/18 02:43:27;;;;;;;9.23;4.80;;;12.00;99.90;;;;;;10320813;28;20230;-73
2023/03/18 02:48:34;;;;;;;10.10;5.20;;;12.00;99.90;;;;;;10317263;28;20217;-72
2023/03/18 02:53:35;;;;;;;7.77;5.90;;;11.90;99.90;;;;;;10310256;28;20775;-72
2023/03/18 02:58:36;;;;;;;5.83;5.20;;;11.90;99.90;;;;;;10309338;28;20238;-72
2023/03/18 03:03:37;;;;;;;9.47;5.90;;;11.90;99.90;;;;;;10316288;28;20218;-72
2023/03/18 03:08:39;;;;;;;6.77;5.23;;;11.80;99.90;;;;;;10315717;28;20300;-73
2023/03/18 03:13:41;;;;;;;8.17;5.70;;;11.80;99.90;;;;;;10313575;28;20665;-72
2023/03/18 03:18:42;;;;;;;11.90;6.40;;;11.70;99.90;;;;;;10315915;28;20221;-71
2023/03/18 03:23:44;;;;;;;6.83;5.60;;;11.70;99.90;;;;;;10316283;28;20229;-72
2023/03/18 03:28:45;;;;;;;9.53;5.63;;;11.70;99.90;;;;;;10323138;28;20252;-72
2023/03/18 03:33:46;;;;;;;10.23;5.73;;;11.60;99.90;;;;;;10321076;28;20284;-72
2023/03/18 03:38:47;;;;;;;7.53;5.80;;;11.60;99.90;;;;;;10314436;28;20232;-72
2023/03/18 03:43:47;;;;;;;9.47;5.67;;;11.60;99.90;;;;;;10309438;28;20222;-71
2023/03/18 03:48:49;;;;;;;6.93;5.27;;;11.60;99.90;;;;;;10314046;28;20273;-72
2023/03/18 03:53:49;;;;;;;10.40;5.20;;;11.50;99.90;;;;;;10322706;28;20309;-73
2023/03/18 03:58:50;;;;;;;9.20;4.80;;;11.40;99.90;;;;;;10309091;28;20343;-72
2023/03/18 04:03:51;;;;;;;6.87;4.70;;;11.50;99.90;;;;;;10326295;28;20653;-72
2023/03/18 04:08:52;;;;;;;9.63;4.70;;;11.50;99.90;;;;;;10318327;28;20218;-71
2023/03/18 04:13:52;;;;;;;6.43;4.53;;;11.50;99.90;;;;;;10309493;28;20233;-71
2023/03/18 04:18:56;;;;;;;6.20;4.10;;;11.50;99.90;;;;;;10317750;28;20247;-72
2023/03/18 04:23:57;;;;;;;5.73;4.20;;;11.40;99.90;;;;;;10311455;28;20222;-73
2023/03/18 04:28:57;;;;;;;6.30;4.43;;;11.40;99.90;;;;;;10320475;28;20218;-72
2023/03/18 04:33:58;;;;;;;5.37;4.17;;;11.40;99.90;;;;;;10315898;28;20253;-72
2023/03/18 04:38:59;;;;;;;5.67;3.77;;;11.50;99.90;;;;;;10312969;28;20254;-72
2023/03/18 04:44:00;;;;;;;7.87;4.27;;;11.50;99.90;;;;;;10323825;28;20246;-72
2023/03/18 04:49:00;;;;;;;7.70;4.47;;;11.40;99.90;;;;;;10300821;28;20237;-71
2023/03/18 04:54:01;;;;;;;7.53;4.93;;;11.20;99.90;;;;;;10308781;28;20239;-72
2023/03/18 04:59:02;;;;;;;8.50;4.97;;;11.10;99.90;;;;;;10315045;28;20745;-72
2023/03/18 05:04:02;;;;;;;8.30;4.23;;;10.90;99.90;;;;;;10308000;28;20222;-72
2023/03/18 05:09:04;;;;;;;8.33;4.57;;;10.70;99.90;;;;;;10315728;28;20226;-72
2023/03/18 05:14:05;;;;;;;5.47;3.90;;;10.60;99.90;;;;;;10312199;28;20246;-72
2023/03/18 05:19:07;;;;;;;6.23;3.83;;;10.60;99.90;;;;;;10315521;28;20649;-71
2023/03/18 05:24:08;;;;;;;6.97;4.20;;;10.60;99.90;;;;;;10323690;28;20260;-72
2023/03/18 05:29:09;;;;;;;5.60;4.37;;;10.60;99.90;;;;;;10311873;28;20217;-72
2023/03/18 05:34:10;;;;;;;5.73;3.97;;;10.60;99.90;;;;;;10306007;28;20234;-72
2023/03/18 05:39:14;;;;;;;8.43;4.33;;;10.80;99.90;;;;;;10315804;28;20221;-72
2023/03/18 05:44:15;;;;;;;4.60;3.73;;;10.90;99.90;;;;;;10321816;28;20238;-72
2023/03/18 05:49:17;;;;;;;7.77;4.03;;;10.90;99.90;;;;;;10311428;28;20654;-72
2023/03/18 05:54:18;;;;;;;8.43;3.83;;;11.00;99.90;;;;;;10309244;28;20261;-73
2023/03/18 05:59:19;;;;;;;4.77;3.70;;;11.10;99.90;;;;;;10310520;28;20737;-72
2023/03/18 06:04:20;;;;;;;9.83;4.00;;;11.10;99.90;;;;;;10303242;28;20231;-72
2023/03/18 06:09:24;;;;;;;5.27;3.93;;;11.20;99.90;;;;;;10320499;28;20693;-71
2023/03/18 06:14:28;;;;;;;6.63;3.73;;;11.20;99.90;;;;;;10311818;28;20710;-72
2023/03/18 06:19:30;;;;;;;6.47;3.97;;;11.30;99.90;;;;;;10319115;28;20226;-72
2023/03/18 06:24:31;;;;;;;8.67;3.73;;;11.40;99.90;;;;;;10328000;28;20221;-72
2023/03/18 06:29:32;;;;;;;6.67;3.73;;;11.50;99.90;;;;;;10310449;28;20694;-72
2023/03/18 06:34:34;;;;;;;6.53;3.80;;;11.50;99.90;;;;;;10310353;28;20222;-72
2023/03/18 06:39:34;;;;;;;7.07;3.20;;;11.60;99.90;;;;;;10317506;28;20724;-72
2023/03/18 06:44:35;;;;;;;9.87;3.60;;;11.80;99.90;;;;;;10323959;28;20221;-73
2023/03/18 06:49:36;;;;;;;4.30;3.10;;;12.10;99.90;;;;;;10309790;28;20214;-71
2023/03/18 06:54:36;;;;;;;4.90;3.20;;;12.30;99.90;;;;;;10319122;28;20648;-72
2023/03/18 06:59:40;;;;;;;5.20;2.67;;;12.50;99.90;;;;;;10316300;28;20226;-72
2023/03/18 07:04:41;;;;;;;4.67;3.17;;;12.70;99.90;;;;;;10318054;28;20225;-71
2023/03/18 07:09:43;;;;;;;4.70;3.43;;;13.30;99.90;;;;;;10316691;28;20584;-72
2023/03/18 07:14:44;;;;;;;4.83;2.80;;;13.90;99.90;;;;;;10328625;28;20215;-72
2023/03/18 07:19:45;;;;;;;6.20;3.23;;;14.40;99.90;;;;;;10314088;28;20233;-73
2023/03/18 07:24:46;;;;;;;4.30;2.93;;;14.40;99.90;;;;;;10320062;28;20301;-72
2023/03/18 07:29:46;;;;;;;7.27;3.10;;;14.40;99.90;;;;;;10303820;28;20291;-72
2023/03/18 07:34:47;;;;;;;5.90;3.10;;;14.80;99.90;;;;;;10316122;28;20223;-72
2023/03/18 07:39:48;;;;;;;5.90;2.40;;;14.80;99.90;;;;;;10324519;28;20218;-73
2023/03/18 07:44:48;;;;;;;4.47;2.73;;;14.90;99.90;;;;;;10315503;28;20221;-72
2023/03/18 07:49:50;;;;;;;4.60;2.73;;;14.90;99.90;;;;;;10315505;28;20223;-73
2023/03/18 07:54:51;;;;;;;4.93;2.43;;;15.30;99.90;;;;;;10319909;28;20217;-73
2023/03/18 07:59:52;;;;;;;4.13;2.67;;;19.10;97.60;;;;;;10314708;28;20235;-73
2023/03/18 08:04:53;;;;;;;3.20;2.07;;;24.10;70.30;;;;;;10308777;28;20223;-72
2023/03/18 08:09:53;;;;;;;3.17;2.10;;;27.00;49.50;;;;;;10317113;28;20230;-73
2023/03/18 08:14:54;;;;;;;4.60;2.53;;;29.10;43.80;;;;;;10306757;28;20231;-74
2023/03/18 08:19:57;;;;;;;4.17;2.20;;;30.60;39.10;;;;;;10305963;28;20215;-74
2023/03/18 08:24:58;;;;;;;4.00;2.30;;;31.30;36.40;;;;;;10325482;28;20211;-73
2023/03/18 08:29:59;;;;;;;6.20;2.40;;;32.00;35.10;;;;;;10309322;28;20233;-73
2023/03/18 08:35:00;;;;;;;3.70;2.13;;;32.70;33.20;;;;;;10316372;28;20225;-73
2023/03/18 08:40:01;;;;;;;6.57;2.60;;;33.00;32.20;;;;;;10312299;28;20234;-73
2023/03/18 08:45:03;;;;;;;3.47;2.10;;;33.20;32.30;;;;;;10316228;28;20226;-73
2023/03/18 08:50:05;;;;;;;4.80;1.90;;;33.50;30.90;;;;;;10317183;28;20222;-72
2023/03/18 08:55:07;;;;;;;3.43;1.90;;;33.70;30.60;;;;;;10323709;28;20249;-73
2023/03/18 09:00:08;;;;;;;3.00;1.40;;;34.30;29.50;;;;;;10315784;28;20207;-74
2023/03/18 09:05:09;;;;;;;3.77;1.80;;;34.50;28.60;;;;;;10312653;28;20171;-73
2023/03/18 09:10:11;;;;;;;7.93;2.13;;;34.80;28.50;;;;;;10314357;28;20207;-73
2023/03/18 09:15:19;;;;;;;6.30;2.00;;;34.60;28.30;;;;;;10309131;28;20171;-73
2023/03/18 09:20:19;;;;;;;3.00;1.63;;;34.90;28.30;;;;;;10305310;28;20229;-73
2023/03/18 09:25:20;;;;;;;3.63;2.00;;;35.30;28.00;;;;;;10310048;28;20182;-74
2023/03/18 09:30:21;;;;;;;4.00;1.60;;;34.80;28.00;;;;;;10304588;28;20206;-74
2023/03/18 09:35:22;;;;;;;7.90;1.93;;;34.80;28.10;;;;;;10309774;28;20233;-75
2023/03/18 09:40:36;;;;;;;2.87;1.90;;;35.60;27.30;;;;;;10331575;28;20267;-73
2023/03/18 09:46:01;;;;;;;3.23;1.50;;;35.80;27.30;;;;;;10302998;28;20215;-73
2023/03/18 09:51:05;;;;;;;4.10;1.83;;;36.00;27.30;;;;;;10307033;28;20674;-74
2023/03/18 09:56:14;;;;;;;5.90;1.93;;;35.40;27.60;;;;;;10314340;28;20214;-73
2023/03/18 10:01:16;;;;;;;2.87;2.20;;;35.70;27.60;;;;;;10321816;28;20234;-75
2023/03/18 10:06:20;;;;;;;4.40;1.73;;;35.50;27.50;;;;;;10313959;28;20226;-74
2023/03/18 10:11:32;;;;;;;5.43;2.07;;;35.70;27.80;;;;;;10302517;28;20229;-73
2023/03/18 10:16:46;;;;;;;7.40;2.07;;;35.50;27.80;;;;;;10293517;28;20713;-74
2023/03/18 10:21:54;;;;;;;3.30;2.13;;;34.20;28.30;;;;;;10317242;28;20359;-75
2023/03/18 10:27:02;;;;;;;5.40;2.40;;;32.40;30.10;;;;;;10317790;28;20260;-75
2023/03/18 10:32:19;;;;;;;3.10;2.10;;;29.90;33.20;;;;;;10322030;28;20223;-74
2023/03/18 10:37:44;;;;;;;4.77;2.20;;;31.40;33.40;;;;;;10308557;28;20217;-75
2023/03/18 10:42:47;;;;;;;3.53;2.03;;;34.90;28.90;;;;;;10310029;28;20226;-75
2023/03/18 10:48:11;;;;;;;2.77;2.03;;;36.20;27.80;;;;;;10310956;28;20227;-75
2023/03/18 10:53:33;;;;;;;3.80;2.10;;;37.70;26.70;;;;;;10325819;28;20312;-75
2023/03/18 10:58:34;;;;;;;4.17;1.83;;;37.70;26.80;;;;;;10314968;28;20251;-74
2023/03/18 11:03:39;;;;;;;3.20;1.70;;;37.70;27.00;;;;;;10309130;28;20725;-75
2023/03/18 11:08:40;;;;;;;2.93;1.60;;;37.00;27.60;;;;;;10316202;28;20221;-74
2023/03/18 11:13:53;;;;;;;3.07;1.70;;;35.00;29.20;;;;;;10326458;28;20225;-73
2023/03/18 11:18:54;;;;;;;4.13;2.00;;;34.40;29.90;;;;;;10323602;28;20641;-73
2023/03/18 11:24:09;;;;;;;6.37;2.10;;;34.40;29.90;;;;;;10314126;28;20238;-73
2023/03/18 11:29:15;;;;;;;4.73;2.50;;;33.70;29.70;;;;;;10314130;28;20308;-74
2023/03/18 11:34:21;;;;;;;5.17;1.90;;;30.30;33.70;;;;;;10324712;28;20714;-74
2023/03/18 11:39:23;;;;;;;4.97;2.40;;;27.80;38.00;;;;;;10317621;28;20223;-73
2023/03/18 11:44:30;;;;;;;3.80;2.00;;;26.50;40.70;;;;;;10314530;28;20233;-74
2023/03/18 11:49:31;;;;;;;4.97;2.50;;;26.10;40.10;;;;;;10306028;28;20222;-72
2023/03/18 11:54:58;;;;;;;4.53;2.40;;;25.70;41.40;;;;;;10299370;28;20976;-73
2023/03/18 12:00:19;;;;;;;3.27;1.87;;;25.40;42.20;;;;;;10309929;28;20231;-74
2023/03/18 12:05:55;;;;;;;4.50;2.60;;;25.10;43.10;;;;;;10323269;28;20216;-73
2023/03/18 12:11:18;;;;;;;4.43;2.20;;;24.30;44.00;;;;;;10326295;28;20222;-73
2023/03/18 12:16:43;;;;;;;4.80;2.30;;;23.60;45.60;;;;;;10314680;28;20218;-73
2023/03/18 12:22:27;;;;;;;4.97;2.17;;;23.00;46.30;;;;;;10305389;28;20276;-74
2023/03/18 12:27:47;;;;;;;4.20;2.17;;;22.80;47.70;;;;;;10294408;28;20233;-74
2023/03/18 12:33:25;;;;;;;5.73;2.20;;;22.70;47.50;;;;;;10312200;28;20237;-73
2023/03/18 12:38:38;;;;;;;4.07;2.40;;;22.80;47.30;;;;;;10305953;28;20268;-75
2023/03/18 12:43:44;;;;;;;4.87;2.63;;;23.00;46.90;;;;;;10306914;28;20300;-74
2023/03/18 12:49:11;;;;;;;4.57;2.13;;;23.10;47.40;;;;;;10312815;28;20230;-73
2023/03/18 12:54:22;;;;;;;6.27;1.87;;;23.00;47.80;;;;;;10318399;28;20689;-73
2023/03/18 12:59:35;;;;;;;4.73;2.50;;;22.90;47.30;;;;;;10314232;28;20229;-74
2023/03/18 13:04:41;;;;;;;4.47;2.27;;;22.50;48.50;;;;;;10322203;28;20777;-74
2023/03/18 13:10:02;;;;;;;7.80;2.40;;;22.40;49.30;;;;;;10311139;28;20260;-74
2023/03/18 13:15:24;;;;;;;3.87;2.10;;;22.40;49.80;;;;;;10308704;28;20229;-74
2023/03/18 13:20:32;;;;;;;5.93;1.90;;;22.40;49.80;;;;;;10311997;28;20284;-73
2023/03/18 13:25:59;;;;;;;5.20;2.10;;;22.40;49.10;;;;;;10303081;28;20231;-73
2023/03/18 13:31:04;;;;;;;4.60;2.10;;;22.10;48.70;;;;;;10300078;28;20305;-74
2023/03/18 13:36:24;;;;;;;5.73;2.40;;;22.00;50.10;;;;;;10320759;28;20313;-73
2023/03/18 13:41:45;;;;;;;7.20;2.10;;;22.00;49.80;;;;;;10328154;28;20721;-74
2023/03/18 13:46:57;;;;;;;7.77;2.53;;;22.10;50.00;;;;;;10309036;28;20692;-74
2023/03/18 13:52:00;;;;;;;6.60;2.23;;;22.30;49.70;;;;;;10303435;28;20254;-73
2023/03/18 13:57:38;;;;;;;4.83;2.00;;;22.50;48.70;;;;;;10313806;28;20226;-74
2023/03/18 14:02:44;;;;;;;8.67;2.33;;;22.50;48.60;;;;;;10314762;28;20237;-74
2023/03/18 14:07:48;;;;;;;8.87;2.60;;;22.40;49.40;;;;;;10312821;28;20301;-73
2023/03/18 14:12:49;;;;;;;5.80;2.27;;;22.00;49.00;;;;;;10316655;28;20232;-74
2023/03/18 14:17:57;;;;;;;4.00;2.20;;;21.60;50.70;;;;;;10311570;28;20236;-74
2023/03/18 14:23:23;;;;;;;2.50;1.80;;;21.20;51.20;;;;;;10305666;28;20232;-74
2023/03/18 14:28:24;;;;;;;6.00;2.50;;;20.90;52.00;;;;;;10304107;28;20231;-73
2023/03/18 14:33:25;;;;;;;5.43;2.00;;;20.90;52.20;;;;;;10309175;28;20226;-73
2023/03/18 14:38:51;;;;;;;3.27;2.00;;;21.00;51.60;;;;;;10316213;28;20272;-71
2023/03/18 14:44:13;;;;;;;3.13;1.70;;;20.80;51.40;;;;;;10315086;28;20233;-74
2023/03/18 14:49:44;;;;;;;4.37;1.57;;;20.60;50.60;;;;;;10317551;28;20292;-73
2023/03/18 14:54:47;;;;;;;4.63;1.67;;;20.40;51.30;;;;;;10308225;28;20225;-72
2023/03/18 14:59:47;;;;;;;62.07;36.97;;;20.10;51.40;;;;;;10319439;28;20233;-74
2023/03/18 15:04:59;;;;;;;7.10;2.93;;;19.90;52.10;;;;;;10315595;28;20230;-75
2023/03/18 15:10:04;;;;;;;4.00;1.80;;;19.90;52.50;;;;;;10319285;28;20547;-74
2023/03/18 15:15:11;;;;;;;3.70;1.60;;;20.00;52.40;;;;;;10323958;28;20226;-73
2023/03/18 15:20:12;;;;;;;3.47;1.33;;;20.10;51.40;;;;;;10324737;28;20202;-73
2023/03/18 15:25:19;;;;;;;4.80;1.70;;;20.10;51.30;;;;;;10317739;28;20166;-73
2023/03/18 15:30:32;;;;;;;4.73;1.80;;;20.00;50.70;;;;;;10310875;28;20215;-76
2023/03/18 15:35:33;;;;;;;4.20;1.50;;;19.90;50.40;;;;;;10327600;28;20713;-76
2023/03/18 15:40:48;;;;;;;2.33;1.50;;;19.80;51.20;;;;;;10329746;28;20230;-77
2023/03/18 15:45:57;;;;;;;4.80;1.60;;;19.80;51.60;;;;;;10308600;28;20218;-75
2023/03/18 15:51:01;;;;;;;4.10;1.47;;;19.90;51.00;;;;;;10314120;28;20226;-73
2023/03/18 15:56:23;;;;;;;4.90;1.57;;;20.00;50.80;;;;;;10314228;28;20221;-73
2023/03/18 16:01:24;;;;;;;5.50;1.50;;;19.80;51.50;;;;;;10308182;28;20238;-73
2023/03/18 16:06:25;;;;;;;3.20;1.40;;;19.60;51.90;;;;;;10309538;28;20221;-74
2023/03/18 16:11:26;;;;;;;3.87;1.60;;;19.50;52.20;;;;;;10330726;28;20217;-71
2023/03/18 16:16:28;;;;;;;4.10;1.60;;;19.40;52.60;;;;;;10312381;28;20226;-74
2023/03/18 16:21:29;;;;;;;3.33;1.47;;;19.30;53.00;;;;;;10320960;28;20589;-75
2023/03/18 16:26:30;;;;;;;4.83;1.60;;;19.10;52.30;;;;;;10321347;28;20217;-75
2023/03/18 16:31:31;;;;;;;3.67;1.60;;;19.00;52.70;;;;;;10312664;28;20305;-72
2023/03/18 16:36:33;;;;;;;2.53;1.20;;;18.80;53.10;;;;;;10309407;28;20209;-75
2023/03/18 16:41:34;;;;;;;3.40;1.60;;;18.70;53.40;;;;;;10305521;28;20230;-71
2023/03/18 16:46:46;;;;;;;3.07;1.30;;;18.40;53.80;;;;;;10304922;28;20841;-76
2023/03/18 16:51:49;;;;;;;3.73;1.77;;;18.30;54.50;;;;;;10323545;28;20255;-74
2023/03/18 16:56:53;;;;;;;3.87;2.60;;;18.10;55.30;;;;;;10309460;28;20672;-72
2023/03/18 17:01:54;;;;;;;3.93;1.97;;;18.00;55.70;;;;;;10306895;28;20241;-71
2023/03/18 17:06:55;;;;;;;3.73;1.80;;;17.90;55.10;;;;;;10311658;28;20636;-75
2023/03/18 17:12:01;;;;;;;5.27;1.50;;;17.80;55.60;;;;;;10314274;28;20568;-72
2023/03/18 17:17:06;;;;;;;4.33;1.80;;;17.60;56.00;;;;;;10321888;28;20220;-72
2023/03/18 17:22:20;;;;;;;4.17;1.60;;;17.50;56.60;;;;;;10306795;28;20707;-76
2023/03/18 17:27:24;;;;;;;4.67;2.40;;;17.30;57.40;;;;;;10318411;28;20586;-74
2023/03/18 17:32:26;;;;;;;4.50;2.23;;;17.00;58.20;;;;;;10326801;28;20229;-70
2023/03/18 17:37:26;;;;;;;3.60;1.93;;;16.80;58.90;;;;;;10309116;28;20231;-72
2023/03/18 17:42:30;;;;;;;2.90;1.70;;;16.50;59.60;;;;;;10317486;28;20227;-74
2023/03/18 17:47:31;;;;;;;3.93;1.73;;;16.30;60.90;;;;;;10309727;28;20261;-74
2023/03/18 17:52:32;;;;;;;3.53;1.60;;;16.10;61.80;;;;;;10310514;28;20245;-72
2023/03/18 17:57:33;;;;;;;2.23;1.80;;;15.90;63.50;;;;;;10302152;28;20240;-74
2023/03/18 18:02:35;;;;;;;5.73;2.10;;;15.80;64.00;;;;;;10310539;28;20228;-74
2023/03/18 18:07:36;;;;;;;3.43;2.17;;;15.60;66.50;;;;;;10324591;28;20251;-74
2023/03/18 18:12:37;;;;;;;5.60;3.10;;;15.40;68.30;;;;;;10317624;28;20637;-73
2023/03/18 18:17:37;;;;;;;13.33;11.33;;;15.20;69.90;;;;;;10301900;28;20217;-71
2023/03/18 18:22:42;;;;;;;15.53;9.53;;;15.00;69.10;;;;;;10309751;28;20298;-71
2023/03/18 18:27:43;;;;;;;13.23;7.93;;;14.90;69.30;;;;;;10304380;28;20309;-71
2023/03/18 18:32:44;;;;;;;11.23;8.70;;;14.80;71.20;;;;;;10314459;28;20312;-73
2023/03/18 18:37:47;;;;;;;10.67;8.03;;;14.70;73.20;;;;;;10309348;28;20225;-73
2023/03/18 18:42:49;;;;;;;10.73;7.03;;;14.60;73.30;;;;;;10316053;28;20731;-74
2023/03/18 18:47:50;;;;;;;12.80;7.80;;;14.50;73.90;;;;;;10318623;28;20234;-71
2023/03/18 18:52:51;;;;;;;10.37;7.90;;;14.50;75.90;;;;;;10306496;28;20237;-72
2023/03/18 18:57:51;;;;;;;12.37;8.50;;;14.40;77.40;;;;;;10310538;28;20225;-72
2023/03/18 19:02:56;;;;;;;16.40;11.27;;;14.30;78.90;;;;;;10323666;28;20866;-72
2023/03/18 19:07:56;;;;;;;15.53;10.67;;;14.20;78.00;;;;;;10327597;28;20759;-72
2023/03/18 19:12:57;;;;;;;15.33;10.13;;;14.30;74.60;;;;;;10301048;28;20233;-72
2023/03/18 19:17:57;;;;;;;17.83;13.13;;;14.40;73.80;;;;;;10305752;28;20217;-70
2023/03/18 19:22:58;;;;;;;13.10;8.80;;;14.40;77.00;;;;;;10316040;28;20225;-72
2023/03/18 19:27:59;;;;;;;10.33;6.20;;;14.30;76.40;;;;;;10323771;28;20385;-73
2023/03/18 19:33:01;;;;;;;8.47;5.10;;;14.20;75.80;;;;;;10318576;28;20238;-74
2023/03/18 19:38:01;;;;;;;4.40;3.43;;;14.00;76.40;;;;;;10318282;28;20233;-73
2023/03/18 19:43:12;;;;;;;7.33;4.33;;;13.90;76.40;;;;;;10311767;28;20742;-73
2023/03/18 19:48:16;;;;;;;7.67;4.53;;;13.80;78.40;;;;;;10316703;28;20226;-73
2023/03/18 19:53:18;;;;;;;7.13;4.47;;;13.70;80.40;;;;;;10320499;28;20318;-72
2023/03/18 19:58:23;;;;;;;9.73;4.70;;;13.60;79.90;;;;;;10324440;28;20233;-74
2023/03/18 20:03:24;;;;;;;8.23;4.80;;;13.60;80.10;;;;;;10329625;28;20243;-72
2023/03/18 20:08:25;;;;;;;7.30;5.10;;;13.60;83.60;;;;;;10329476;28;20311;-74
2023/03/18 20:13:25;;;;;;;6.93;4.80;;;13.60;85.60;;;;;;10317642;28;20316;-73
2023/03/18 20:18:26;;;;;;;6.73;4.70;;;13.60;86.40;;;;;;10319163;28;20222;-72
2023/03/18 20:23:28;;;;;;;11.53;6.43;;;13.60;86.50;;;;;;10314839;28;20226;-73
2023/03/18 20:28:29;;;;;;;5.83;4.50;;;13.60;83.60;;;;;;10320572;28;20222;-69
2023/03/18 20:33:31;;;;;;;7.77;5.10;;;13.60;81.40;;;;;;10312059;28;20606;-70
2023/03/18 20:38:37;;;;;;;7.67;5.10;;;13.60;83.50;;;;;;10320985;28;20225;-69
2023/03/18 20:43:38;;;;;;;8.00;5.50;;;13.60;83.50;;;;;;10313832;28;20734;-69
2023/03/18 20:48:39;;;;;;;9.67;4.80;;;13.50;85.70;;;;;;10313078;28;20229;-69
2023/03/18 20:53:40;;;;;;;7.63;4.87;;;13.50;86.40;;;;;;10312293;28;20312;-70
2023/03/18 20:58:41;;;;;;;6.60;4.50;;;13.50;85.30;;;;;;10311541;28;20312;-69
2023/03/18 21:03:42;;;;;;;7.33;4.33;;;13.50;83.90;;;;;;10304487;28;20219;-70
2023/03/18 21:08:42;;;;;;;7.33;3.80;;;13.50;84.70;;;;;;10324646;28;20730;-70
2023/03/18 21:13:43;;;;;;;4.80;3.90;;;13.60;82.00;;;;;;10313312;28;20222;-68
2023/03/18 21:18:48;;;;;;;9.30;4.87;;;13.70;81.20;;;;;;10319103;28;20222;-68
2023/03/18 21:23:50;;;;;;;7.63;3.90;;;13.80;82.10;;;;;;10311700;28;20222;-69
2023/03/18 21:28:51;;;;;;;7.57;4.57;;;13.90;81.20;;;;;;10305949;28;20317;-73
2023/03/18 21:33:52;;;;;;;6.57;4.43;;;14.00;84.60;;;;;;10310024;28;20233;-70
2023/03/18 21:38:53;;;;;;;8.80;4.53;;;13.90;88.00;;;;;;10312016;28;20224;-71
2023/03/18 21:43:54;;;;;;;10.10;4.13;;;13.80;89.00;;;;;;10314383;28;20221;-73
2023/03/18 21:48:54;;;;;;;9.30;4.40;;;13.70;89.80;;;;;;10307396;28;20226;-71
2023/03/18 21:53:55;;;;;;;8.90;4.60;;;13.60;90.30;;;;;;10303873;28;20662;-70
2023/03/18 21:58:56;;;;;;;5.53;3.97;;;13.50;90.30;;;;;;10316335;28;20225;-72
2023/03/18 22:03:56;;;;;;;5.43;3.63;;;13.40;90.20;;;;;;10310508;28;20688;-73
2023/03/18 22:08:57;;;;;;;8.13;3.97;;;13.40;86.50;;;;;;10321496;28;20214;-68
2023/03/18 22:13:57;;;;;;;5.10;3.77;;;13.40;87.10;;;;;;10309953;28;20222;-69
2023/03/18 22:18:58;;;;;;;5.47;4.33;;;13.40;86.20;;;;;;10309350;28;20723;-70
2023/03/18 22:23:59;;;;;;;6.93;4.10;;;13.40;87.20;;;;;;10299590;28;20641;-69
2023/03/18 22:28:59;;;;;;;8.80;4.27;;;13.30;85.80;;;;;;10322503;28;20222;-70
2023/03/18 22:34:00;;;;;;;9.50;3.60;;;13.30;84.10;;;;;;10318175;28;20685;-70
2023/03/18 22:39:01;;;;;;;5.07;3.60;;;13.10;84.20;;;;;;10306874;28;20932;-70
2023/03/18 22:44:02;;;;;;;4.73;3.57;;;13.00;84.80;;;;;;10314230;28;20578;-71
2023/03/18 22:49:06;;;;;;;7.70;3.80;;;12.90;84.60;;;;;;10310301;28;20229;-71
2023/03/18 22:54:16;;;;;;;7.37;3.90;;;12.90;86.20;;;;;;10297622;28;20238;-70
2023/03/18 22:59:19;;;;;;;4.47;3.00;;;12.80;90.00;;;;;;10315704;28;20312;-71
2023/03/18 23:04:28;;;;;;;5.13;3.40;;;12.60;89.70;;;;;;10315769;28;20229;-72
2023/03/18 23:09:32;;;;;;;5.63;3.73;;;12.50;88.80;;;;;;10324009;28;20232;-77
2023/03/18 23:14:33;;;;;;;7.80;3.80;;;12.30;89.90;;;;;;10329999;28;20217;-70
2023/03/18 23:19:33;;;;;;;8.70;4.00;;;12.30;91.00;;;;;;10315091;28;20241;-69
2023/03/18 23:24:34;;;;;;;5.30;3.93;;;12.40;91.30;;;;;;10324252;28;20257;-70
2023/03/18 23:29:35;;;;;;;6.10;4.10;;;12.40;91.20;;;;;;10315824;28;20221;-69
2023/03/18 23:34:35;;;;;;;7.53;4.60;;;12.40;91.70;;;;;;10326421;28;20248;-70
2023/03/18 23:39:41;;;;;;;9.43;4.53;;;12.50;91.50;;;;;;10317909;28;20218;-70
2023/03/18 23:44:43;;;;;;;12.27;6.30;;;12.50;91.70;;;;;;10316263;28;20580;-70
2023/03/18 23:49:43;;;;;;;7.00;4.80;;;12.60;92.20;;;;;;10320643;28;20222;-74
2023/03/18 23:54:44;;;;;;;6.43;4.00;;;12.60;91.80;;;;;;10307657;28;20226;-69
2023/03/18 23:59:45;;;;;;;5.00;3.60;;;12.60;91.60;;;;;;10313894;28;20591;-72
